sensor_id;sensor_type;location;lat;lon;timestamp;pressure;altitude;pressure_sealevel;temperature;humidity
13434;BME280;6789;47.678;9.158;2023-04-25T00:01:32;96260.16;;;9.91;78.31
13434;BME280;6789;47.678;9.158;2023-04-25T00:06:40;96269.28;;;9.89;79.40
13434;BME280;6789;47.678;9.158;2023-04-25T00:11:33;96274.06;;;10.03;79.45
13434;BME280;6789;47.678;9.158;2023-04-25T00:21:46;96262.06;;;9.95;82.16
13434;BME280;6789;47.678;9.158;2023-04-25T00:26:47;96258.31;;;9.92;82.97
13434;BME280;6789;47.678;9.158;2023-04-25T00:31:39;96254.69;;;9.93;84.50
13434;BME280;6789;47.678;9.158;2023-04-25T00:36:30;96255.28;;;9.83;85.85
13434;BME280;6789;47.678;9.158;2023-04-25T00:41:24;96247.22;;;9.73;85.54
13434;BME280;6789;47.678;9.158;2023-04-25T00:46:16;96244.50;;;9.57;84.66
13434;BME280;6789;47.678;9.158;2023-04-25T00:51:14;96249.28;;;9.48;83.42
13434;BME280;6789;47.678;9.158;2023-04-25T00:56:07;96235.09;;;9.33;82.51
13434;BME280;6789;47.678;9.158;2023-04-25T01:00:59;96233.25;;;9.22;82.71
13434;BME280;6789;47.678;9.158;2023-04-25T01:05:52;96223.47;;;9.29;80.50
13434;BME280;6789;47.678;9.158;2023-04-25T01:10:44;96230.06;;;9.20;80.52
13434;BME280;6789;47.678;9.158;2023-04-25T01:15:36;96223.13;;;9.14;81.17
13434;BME280;6789;47.678;9.158;2023-04-25T01:20:29;96221.88;;;9.28;80.61
13434;BME280;6789;47.678;9.158;2023-04-25T01:25:22;96218.91;;;9.24;81.00
13434;BME280;6789;47.678;9.158;2023-04-25T01:30:14;96232.00;;;9.13;82.01
13434;BME280;6789;47.678;9.158;2023-04-25T01:35:10;96239.03;;;9.01;85.45
13434;BME280;6789;47.678;9.158;2023-04-25T01:40:03;96226.66;;;8.97;87.28
13434;BME280;6789;47.678;9.158;2023-04-25T01:44:57;96224.69;;;8.92;89.30
13434;BME280;6789;47.678;9.158;2023-04-25T01:49:48;96217.19;;;8.73;91.48
13434;BME280;6789;47.678;9.158;2023-04-25T01:54:40;96221.94;;;8.64;94.96
13434;BME280;6789;47.678;9.158;2023-04-25T01:59:36;96203.38;;;8.54;97.06
13434;BME280;6789;47.678;9.158;2023-04-25T02:04:28;96190.63;;;8.47;97.90
13434;BME280;6789;47.678;9.158;2023-04-25T02:09:20;96185.63;;;8.34;98.75
13434;BME280;6789;47.678;9.158;2023-04-25T02:14:12;96185.09;;;8.14;98.82
13434;BME280;6789;47.678;9.158;2023-04-25T02:19:03;96188.47;;;8.03;100.00
13434;BME280;6789;47.678;9.158;2023-04-25T02:23:56;96189.13;;;7.98;100.00
13434;BME280;6789;47.678;9.158;2023-04-25T02:28:48;96186.47;;;7.69;100.00
13434;BME280;6789;47.678;9.158;2023-04-25T02:33:39;96179.16;;;7.60;100.00
13434;BME280;6789;47.678;9.158;2023-04-25T02:38:31;96182.91;;;7.64;100.00
13434;BME280;6789;47.678;9.158;2023-04-25T02:43:23;96186.34;;;7.46;100.00
13434;BME280;6789;47.678;9.158;2023-04-25T02:48:15;96197.72;;;7.34;100.00
13434;BME280;6789;47.678;9.158;2023-04-25T02:53:06;96186.34;;;7.46;100.00
13434;BME280;6789;47.678;9.158;2023-04-25T02:58:13;96192.44;;;7.40;100.00
13434;BME280;6789;47.678;9.158;2023-04-25T03:03:05;96191.41;;;7.23;100.00
13434;BME280;6789;47.678;9.158;2023-04-25T03:07:56;96190.53;;;7.11;100.00
13434;BME280;6789;47.678;9.158;2023-04-25T03:12:48;96187.63;;;7.02;100.00
13434;BME280;6789;47.678;9.158;2023-04-25T03:17:40;96187.53;;;6.90;100.00
13434;BME280;6789;47.678;9.158;2023-04-25T03:22:32;96179.56;;;6.85;100.00
13434;BME280;6789;47.678;9.158;2023-04-25T03:27:24;96177.59;;;6.81;100.00
13434;BME280;6789;47.678;9.158;2023-04-25T03:32:15;96179.63;;;6.79;100.00
13434;BME280;6789;47.678;9.158;2023-04-25T03:37:07;96172.97;;;6.83;100.00
13434;BME280;6789;47.678;9.158;2023-04-25T03:41:59;96176.72;;;6.87;100.00
13434;BME280;6789;47.678;9.158;2023-04-25T03:46:51;96178.81;;;7.03;100.00
13434;BME280;6789;47.678;9.158;2023-04-25T03:51:42;96171.09;;;6.90;100.00
13434;BME280;6789;47.678;9.158;2023-04-25T03:56:34;96168.84;;;6.75;100.00
13434;BME280;6789;47.678;9.158;2023-04-25T04:01:26;96171.09;;;6.65;100.00
13434;BME280;6789;47.678;9.158;2023-04-25T04:06:18;96161.16;;;6.56;100.00
13434;BME280;6789;47.678;9.158;2023-04-25T04:11:12;96158.63;;;6.49;100.00
13434;BME280;6789;47.678;9.158;2023-04-25T04:16:05;96158.81;;;6.48;100.00
13434;BME280;6789;47.678;9.158;2023-04-25T04:20:57;96153.63;;;6.48;100.00
13434;BME280;6789;47.678;9.158;2023-04-25T04:25:51;96153.59;;;6.54;100.00
13434;BME280;6789;47.678;9.158;2023-04-25T04:30:48;96148.75;;;6.58;100.00
13434;BME280;6789;47.678;9.158;2023-04-25T04:35:42;96147.63;;;6.72;100.00
13434;BME280;6789;47.678;9.158;2023-04-25T04:40:34;96147.50;;;6.85;100.00
13434;BME280;6789;47.678;9.158;2023-04-25T04:45:26;96148.53;;;7.02;100.00
13434;BME280;6789;47.678;9.158;2023-04-25T04:50:19;96150.50;;;7.24;100.00
13434;BME280;6789;47.678;9.158;2023-04-25T04:55:11;96148.53;;;7.84;100.00
13434;BME280;6789;47.678;9.158;2023-04-25T05:00:05;96155.66;;;9.39;97.76
13434;BME280;6789;47.678;9.158;2023-04-25T05:05:01;96147.81;;;10.34;89.38
13434;BME280;6789;47.678;9.158;2023-04-25T05:09:53;96147.50;;;10.79;86.17
13434;BME280;6789;47.678;9.158;2023-04-25T05:14:45;96149.13;;;10.48;86.04
13434;BME280;6789;47.678;9.158;2023-04-25T05:19:37;96158.63;;;10.09;87.71
13434;BME280;6789;47.678;9.158;2023-04-25T05:24:29;96153.59;;;9.80;90.00
13434;BME280;6789;47.678;9.158;2023-04-25T05:29:22;96156.59;;;9.72;89.40
13434;BME280;6789;47.678;9.158;2023-04-25T05:34:13;96158.28;;;9.78;88.02
13434;BME280;6789;47.678;9.158;2023-04-25T05:39:05;96160.59;;;10.02;88.18
13434;BME280;6789;47.678;9.158;2023-04-25T05:44:33;96159.13;;;10.67;85.89
13434;BME280;6789;47.678;9.158;2023-04-25T05:49:28;96150.44;;;10.83;83.84
13434;BME280;6789;47.678;9.158;2023-04-25T05:54:20;96152.28;;;10.66;82.01
13434;BME280;6789;47.678;9.158;2023-04-25T05:59:11;96147.59;;;10.68;80.84
13434;BME280;6789;47.678;9.158;2023-04-25T06:04:03;96149.81;;;10.76;80.46
13434;BME280;6789;47.678;9.158;2023-04-25T06:09:03;96145.03;;;11.06;79.97
13434;BME280;6789;47.678;9.158;2023-04-25T06:13:55;96154.25;;;10.92;81.42
13434;BME280;6789;47.678;9.158;2023-04-25T06:18:46;96151.28;;;11.21;79.76
13434;BME280;6789;47.678;9.158;2023-04-25T06:23:38;96154.97;;;11.04;79.58
13434;BME280;6789;47.678;9.158;2023-04-25T06:28:30;96154.94;;;11.20;78.07
13434;BME280;6789;47.678;9.158;2023-04-25T06:33:22;96139.06;;;11.69;74.89
13434;BME280;6789;47.678;9.158;2023-04-25T06:38:30;96133.81;;;12.17;72.70
13434;BME280;6789;47.678;9.158;2023-04-25T06:43:23;96140.63;;;12.76;69.40
13434;BME280;6789;47.678;9.158;2023-04-25T06:48:15;96137.53;;;12.83;67.77
13434;BME280;6789;47.678;9.158;2023-04-25T06:53:08;96137.69;;;12.98;66.99
13434;BME280;6789;47.678;9.158;2023-04-25T06:58:00;96139.81;;;13.06;65.34
13434;BME280;6789;47.678;9.158;2023-04-25T07:02:52;96142.53;;;12.85;65.47
13434;BME280;6789;47.678;9.158;2023-04-25T07:07:48;96142.13;;;12.62;67.79
13434;BME280;6789;47.678;9.158;2023-04-25T07:12:40;96146.69;;;12.45;70.78
13434;BME280;6789;47.678;9.158;2023-04-25T07:17:34;96162.16;;;12.15;73.32
13434;BME280;6789;47.678;9.158;2023-04-25T07:22:26;96171.53;;;11.63;77.77
13434;BME280;6789;47.678;9.158;2023-04-25T07:27:19;96199.09;;;11.07;83.07
13434;BME280;6789;47.678;9.158;2023-04-25T07:32:12;96210.25;;;10.09;87.57
13434;BME280;6789;47.678;9.158;2023-04-25T07:37:06;96214.69;;;9.01;94.96
13434;BME280;6789;47.678;9.158;2023-04-25T07:41:58;96204.59;;;8.41;100.00
13434;BME280;6789;47.678;9.158;2023-04-25T07:46:50;96212.22;;;8.42;100.00
13434;BME280;6789;47.678;9.158;2023-04-25T07:51:43;96208.44;;;8.38;99.74
13434;BME280;6789;47.678;9.158;2023-04-25T07:56:35;96218.72;;;8.22;99.55
13434;BME280;6789;47.678;9.158;2023-04-25T08:01:43;96214.69;;;8.26;100.00
13434;BME280;6789;47.678;9.158;2023-04-25T08:06:35;96220.72;;;8.38;100.00
13434;BME280;6789;47.678;9.158;2023-04-25T08:11:28;96224.47;;;8.30;100.00
13434;BME280;6789;47.678;9.158;2023-04-25T08:16:20;96231.66;;;8.46;100.00
13434;BME280;6789;47.678;9.158;2023-04-25T08:21:12;96236.53;;;8.43;100.00
13434;BME280;6789;47.678;9.158;2023-04-25T08:26:13;96244.00;;;8.28;100.00
13434;BME280;6789;47.678;9.158;2023-04-25T08:31:19;96237.13;;;8.15;100.00
13434;BME280;6789;47.678;9.158;2023-04-25T08:36:26;96238.41;;;8.24;100.00
13434;BME280;6789;47.678;9.158;2023-04-25T08:41:23;96244.31;;;8.31;100.00
13434;BME280;6789;47.678;9.158;2023-04-25T08:46:18;96254.09;;;8.24;100.00
13434;BME280;6789;47.678;9.158;2023-04-25T08:51:15;96259.31;;;8.24;100.00
13434;BME280;6789;47.678;9.158;2023-04-25T08:56:07;96258.06;;;8.27;100.00
13434;BME280;6789;47.678;9.158;2023-04-25T09:01:03;96266.03;;;8.32;100.00
13434;BME280;6789;47.678;9.158;2023-04-25T09:06:12;96277.75;;;8.41;100.00
13434;BME280;6789;47.678;9.158;2023-04-25T09:11:19;96281.53;;;8.45;100.00
13434;BME280;6789;47.678;9.158;2023-04-25T09:16:14;96294.94;;;8.77;100.00
13434;BME280;6789;47.678;9.158;2023-04-25T09:21:13;96305.06;;;8.85;100.00
13434;BME280;6789;47.678;9.158;2023-04-25T09:26:07;96308.19;;;9.28;100.00
13434;BME280;6789;47.678;9.158;2023-04-25T09:31:03;96313.69;;;9.61;100.00
13434;BME280;6789;47.678;9.158;2023-04-25T09:36:27;96326.75;;;9.84;97.51
13434;BME280;6789;47.678;9.158;2023-04-25T09:41:28;96319.47;;;9.86;97.36
13434;BME280;6789;47.678;9.158;2023-04-25T09:46:23;96338.72;;;10.02;95.95
13434;BME280;6789;47.678;9.158;2023-04-25T09:51:16;96341.53;;;10.24;94.14
13434;BME280;6789;47.678;9.158;2023-04-25T09:56:13;96343.59;;;10.61;92.16
13434;BME280;6789;47.678;9.158;2023-04-25T10:01:10;96351.66;;;10.71;90.59
13434;BME280;6789;47.678;9.158;2023-04-25T10:06:07;96345.38;;;11.00;86.56
13434;BME280;6789;47.678;9.158;2023-04-25T10:11:05;96345.19;;;11.18;86.96
13434;BME280;6789;47.678;9.158;2023-04-25T10:16:00;96349.22;;;11.09;85.19
13434;BME280;6789;47.678;9.158;2023-04-25T10:21:07;96346.88;;;11.40;86.18
13434;BME280;6789;47.678;9.158;2023-04-25T10:26:00;96341.47;;;11.63;82.73
13434;BME280;6789;47.678;9.158;2023-04-25T10:31:07;96342.00;;;11.48;82.98
13434;BME280;6789;47.678;9.158;2023-04-25T10:36:19;96339.16;;;11.66;84.36
13434;BME280;6789;47.678;9.158;2023-04-25T10:41:14;96337.34;;;12.05;78.70
13434;BME280;6789;47.678;9.158;2023-04-25T10:46:29;96342.63;;;12.26;78.80
13434;BME280;6789;47.678;9.158;2023-04-25T10:51:34;96339.38;;;12.19;78.25
13434;BME280;6789;47.678;9.158;2023-04-25T10:56:48;96347.03;;;11.83;77.73
13434;BME280;6789;47.678;9.158;2023-04-25T11:02:01;96347.84;;;11.67;78.61
13434;BME280;6789;47.678;9.158;2023-04-25T11:07:34;96345.63;;;11.59;78.37
13434;BME280;6789;47.678;9.158;2023-04-25T11:12:30;96346.56;;;11.69;79.27
13434;BME280;6789;47.678;9.158;2023-04-25T11:17:25;96344.94;;;11.85;78.71
13434;BME280;6789;47.678;9.158;2023-04-25T11:22:20;96357.00;;;12.40;75.97
13434;BME280;6789;47.678;9.158;2023-04-25T11:27:13;96345.88;;;12.33;73.26
13434;BME280;6789;47.678;9.158;2023-04-25T11:32:06;96337.72;;;12.56;72.45
13434;BME280;6789;47.678;9.158;2023-04-25T11:37:03;96332.22;;;13.00;70.41
13434;BME280;6789;47.678;9.158;2023-04-25T11:41:56;96335.94;;;13.66;69.32
13434;BME280;6789;47.678;9.158;2023-04-25T11:46:48;96340.84;;;13.89;67.13
13434;BME280;6789;47.678;9.158;2023-04-25T11:51:46;96345.03;;;13.85;63.45
13434;BME280;6789;47.678;9.158;2023-04-25T11:56:52;96357.94;;;12.72;64.56
13434;BME280;6789;47.678;9.158;2023-04-25T12:01:49;96363.22;;;12.12;67.88
13434;BME280;6789;47.678;9.158;2023-04-25T12:06:49;96357.19;;;12.12;69.99
13434;BME280;6789;47.678;9.158;2023-04-25T12:11:55;96372.44;;;11.77;73.07
13434;BME280;6789;47.678;9.158;2023-04-25T12:16:48;96389.69;;;10.46;83.87
13434;BME280;6789;47.678;9.158;2023-04-25T12:21:54;96390.28;;;9.91;87.97
13434;BME280;6789;47.678;9.158;2023-04-25T12:27:03;96400.69;;;10.08;91.38
13434;BME280;6789;47.678;9.158;2023-04-25T12:32:05;96406.78;;;9.57;89.74
13434;BME280;6789;47.678;9.158;2023-04-25T12:37:11;96390.31;;;9.79;95.66
13434;BME280;6789;47.678;9.158;2023-04-25T12:42:04;96393.84;;;10.30;94.38
13434;BME280;6789;47.678;9.158;2023-04-25T12:47:13;96387.50;;;10.93;92.30
13434;BME280;6789;47.678;9.158;2023-04-25T12:52:07;96388.84;;;11.24;85.21
13434;BME280;6789;47.678;9.158;2023-04-25T12:57:14;96394.16;;;11.56;83.29
13434;BME280;6789;47.678;9.158;2023-04-25T13:02:20;96384.38;;;11.68;83.53
13434;BME280;6789;47.678;9.158;2023-04-25T13:07:15;96383.16;;;12.09;81.09
13434;BME280;6789;47.678;9.158;2023-04-25T13:12:22;96384.69;;;12.26;76.65
13434;BME280;6789;47.678;9.158;2023-04-25T13:17:15;96377.78;;;12.41;78.15
13434;BME280;6789;47.678;9.158;2023-04-25T13:22:07;96384.97;;;12.46;75.41
13434;BME280;6789;47.678;9.158;2023-04-25T13:27:13;96394.81;;;12.77;70.66
13434;BME280;6789;47.678;9.158;2023-04-25T13:32:10;96400.22;;;13.08;68.61
13434;BME280;6789;47.678;9.158;2023-04-25T13:37:04;96393.44;;;13.43;62.19
13434;BME280;6789;47.678;9.158;2023-04-25T13:42:10;96393.97;;;13.40;64.73
13434;BME280;6789;47.678;9.158;2023-04-25T13:47:03;96388.25;;;13.48;65.08
13434;BME280;6789;47.678;9.158;2023-04-25T13:51:56;96396.72;;;13.86;63.76
13434;BME280;6789;47.678;9.158;2023-04-25T13:56:57;96399.69;;;14.26;59.15
13434;BME280;6789;47.678;9.158;2023-04-25T14:02:05;96403.00;;;14.12;59.46
13434;BME280;6789;47.678;9.158;2023-04-25T14:07:11;96402.50;;;14.15;59.46
13434;BME280;6789;47.678;9.158;2023-04-25T14:12:04;96399.03;;;14.55;59.06
13434;BME280;6789;47.678;9.158;2023-04-25T14:17:12;96411.28;;;14.30;58.74
13434;BME280;6789;47.678;9.158;2023-04-25T14:22:18;96426.25;;;13.57;60.89
13434;BME280;6789;47.678;9.158;2023-04-25T14:27:24;96429.75;;;13.36;65.82
13434;BME280;6789;47.678;9.158;2023-04-25T14:32:32;96439.09;;;13.01;69.09
13434;BME280;6789;47.678;9.158;2023-04-25T14:37:37;96447.84;;;12.69;74.82
13434;BME280;6789;47.678;9.158;2023-04-25T14:42:41;96449.81;;;12.57;77.63
13434;BME280;6789;47.678;9.158;2023-04-25T14:47:36;96451.28;;;12.48;75.89
13434;BME280;6789;47.678;9.158;2023-04-25T14:52:31;96439.59;;;12.60;70.62
13434;BME280;6789;47.678;9.158;2023-04-25T14:57:38;96434.66;;;12.64;70.93
13434;BME280;6789;47.678;9.158;2023-04-25T15:02:46;96442.31;;;12.86;68.97
13434;BME280;6789;47.678;9.158;2023-04-25T15:07:39;96443.03;;;12.98;70.25
13434;BME280;6789;47.678;9.158;2023-04-25T15:12:32;96442.53;;;12.64;71.30
13434;BME280;6789;47.678;9.158;2023-04-25T15:17:25;96441.59;;;12.53;74.54
13434;BME280;6789;47.678;9.158;2023-04-25T15:22:17;96445.91;;;12.80;74.73
13434;BME280;6789;47.678;9.158;2023-04-25T15:27:23;96430.25;;;12.69;67.86
13434;BME280;6789;47.678;9.158;2023-04-25T15:32:36;96432.13;;;13.11;69.28
13434;BME280;6789;47.678;9.158;2023-04-25T15:37:43;96442.25;;;13.03;63.87
13434;BME280;6789;47.678;9.158;2023-04-25T15:42:49;96449.38;;;13.02;66.01
13434;BME280;6789;47.678;9.158;2023-04-25T15:47:58;96451.00;;;13.30;65.34
13434;BME280;6789;47.678;9.158;2023-04-25T15:52:59;96450.09;;;12.98;63.82
13434;BME280;6789;47.678;9.158;2023-04-25T15:58:05;96454.66;;;12.65;69.28
13434;BME280;6789;47.678;9.158;2023-04-25T16:03:05;96448.03;;;12.41;70.14
13434;BME280;6789;47.678;9.158;2023-04-25T16:08:05;96443.66;;;12.30;71.31
13434;BME280;6789;47.678;9.158;2023-04-25T16:12:58;96444.97;;;12.11;71.26
13434;BME280;6789;47.678;9.158;2023-04-25T16:17:54;96458.09;;;11.95;71.04
13434;BME280;6789;47.678;9.158;2023-04-25T16:22:46;96474.72;;;11.67;72.13
13434;BME280;6789;47.678;9.158;2023-04-25T16:27:45;96493.09;;;11.00;78.43
13434;BME280;6789;47.678;9.158;2023-04-25T16:32:39;96502.66;;;10.44;84.33
13434;BME280;6789;47.678;9.158;2023-04-25T16:37:37;96524.97;;;10.12;87.65
13434;BME280;6789;47.678;9.158;2023-04-25T16:42:29;96523.88;;;9.50;89.81
13434;BME280;6789;47.678;9.158;2023-04-25T16:47:34;96524.38;;;9.11;97.45
13434;BME280;6789;47.678;9.158;2023-04-25T16:52:28;96530.50;;;8.87;100.00
13434;BME280;6789;47.678;9.158;2023-04-25T16:57:24;96529.91;;;8.85;100.00
13434;BME280;6789;47.678;9.158;2023-04-25T17:02:30;96532.97;;;9.00;100.00
13434;BME280;6789;47.678;9.158;2023-04-25T17:07:29;96527.47;;;9.20;100.00
13434;BME280;6789;47.678;9.158;2023-04-25T17:12:35;96533.16;;;9.46;100.00
13434;BME280;6789;47.678;9.158;2023-04-25T17:17:41;96535.47;;;9.54;100.00
13434;BME280;6789;47.678;9.158;2023-04-25T17:22:53;96528.59;;;9.71;100.00
13434;BME280;6789;47.678;9.158;2023-04-25T17:27:44;96537.59;;;9.75;99.90
13434;BME280;6789;47.678;9.158;2023-04-25T17:32:51;96541.91;;;9.69;96.31
13434;BME280;6789;47.678;9.158;2023-04-25T17:38:01;96551.13;;;9.72;95.08
13434;BME280;6789;47.678;9.158;2023-04-25T17:43:08;96556.50;;;9.77;95.88
13434;BME280;6789;47.678;9.158;2023-04-25T17:48:07;96554.78;;;9.71;95.75
13434;BME280;6789;47.678;9.158;2023-04-25T17:53:04;96561.06;;;9.70;96.45
13434;BME280;6789;47.678;9.158;2023-04-25T17:58:10;96567.84;;;9.71;96.48
13434;BME280;6789;47.678;9.158;2023-04-25T18:03:16;96569.91;;;9.69;94.00
13434;BME280;6789;47.678;9.158;2023-04-25T18:08:08;96580.81;;;9.66;94.11
13434;BME280;6789;47.678;9.158;2023-04-25T18:13:14;96578.53;;;9.58;93.17
13434;BME280;6789;47.678;9.158;2023-04-25T18:18:27;96592.84;;;9.55;91.00
13434;BME280;6789;47.678;9.158;2023-04-25T18:23:25;96589.00;;;9.58;91.97
13434;BME280;6789;47.678;9.158;2023-04-25T18:28:18;96608.34;;;9.57;92.06
13434;BME280;6789;47.678;9.158;2023-04-25T18:33:11;96611.63;;;9.82;90.89
13434;BME280;6789;47.678;9.158;2023-04-25T18:38:18;96628.25;;;9.76;91.17
13434;BME280;6789;47.678;9.158;2023-04-25T18:43:26;96630.22;;;9.62;93.04
13434;BME280;6789;47.678;9.158;2023-04-25T18:48:32;96634.06;;;9.60;93.64
13434;BME280;6789;47.678;9.158;2023-04-25T18:53:39;96635.81;;;9.66;93.00
13434;BME280;6789;47.678;9.158;2023-04-25T18:58:41;96643.59;;;9.36;95.69
13434;BME280;6789;47.678;9.158;2023-04-25T19:03:38;96654.56;;;9.27;97.27
13434;BME280;6789;47.678;9.158;2023-04-25T19:08:45;96665.72;;;9.40;95.94
13434;BME280;6789;47.678;9.158;2023-04-25T19:13:52;96671.69;;;9.29;96.26
13434;BME280;6789;47.678;9.158;2023-04-25T19:18:46;96670.50;;;9.25;97.02
13434;BME280;6789;47.678;9.158;2023-04-25T19:23:45;96681.97;;;9.24;95.85
13434;BME280;6789;47.678;9.158;2023-04-25T19:29:10;96686.84;;;9.21;100.00
13434;BME280;6789;47.678;9.158;2023-04-25T19:34:13;96679.16;;;9.08;100.00
13434;BME280;6789;47.678;9.158;2023-04-25T19:39:07;96683.03;;;8.99;100.00
13434;BME280;6789;47.678;9.158;2023-04-25T19:44:02;96673.94;;;8.84;100.00
13434;BME280;6789;47.678;9.158;2023-04-25T19:49:15;96672.81;;;8.73;100.00
13434;BME280;6789;47.678;9.158;2023-04-25T19:54:14;96679.63;;;8.74;100.00
13434;BME280;6789;47.678;9.158;2023-04-25T19:59:07;96675.63;;;8.72;100.00
13434;BME280;6789;47.678;9.158;2023-04-25T20:04:01;96678.88;;;8.67;100.00
13434;BME280;6789;47.678;9.158;2023-04-25T20:08:55;96675.63;;;8.72;100.00
13434;BME280;6789;47.678;9.158;2023-04-25T20:13:48;96679.25;;;8.71;100.00
13434;BME280;6789;47.678;9.158;2023-04-25T20:18:52;96685.50;;;8.70;100.00
13434;BME280;6789;47.678;9.158;2023-04-25T20:23:46;96688.13;;;8.70;100.00
13434;BME280;6789;47.678;9.158;2023-04-25T20:28:38;96695.56;;;8.66;100.00
13434;BME280;6789;47.678;9.158;2023-04-25T20:33:45;96697.19;;;8.67;100.00
13434;BME280;6789;47.678;9.158;2023-04-25T20:38:51;96704.25;;;8.60;100.00
13434;BME280;6789;47.678;9.158;2023-04-25T20:43:58;96715.09;;;8.64;100.00
13434;BME280;6789;47.678;9.158;2023-04-25T20:49:18;96707.41;;;8.69;100.00
13434;BME280;6789;47.678;9.158;2023-04-25T20:54:47;96712.22;;;8.72;100.00
13434;BME280;6789;47.678;9.158;2023-04-25T20:59:57;96708.94;;;8.58;100.00
13434;BME280;6789;47.678;9.158;2023-04-25T21:05:38;96705.19;;;8.48;100.00
13434;BME280;6789;47.678;9.158;2023-04-25T21:10:52;96706.41;;;8.46;100.00
13434;BME280;6789;47.678;9.158;2023-04-25T21:15:51;96708.19;;;8.45;100.00
13434;BME280;6789;47.678;9.158;2023-04-25T21:20:58;96701.19;;;8.46;100.00
13434;BME280;6789;47.678;9.158;2023-04-25T21:25:53;96705.59;;;8.45;100.00
13434;BME280;6789;47.678;9.158;2023-04-25T21:31:00;96711.25;;;8.42;100.00
13434;BME280;6789;47.678;9.158;2023-04-25T21:36:13;96718.63;;;8.52;100.00
13434;BME280;6789;47.678;9.158;2023-04-25T21:41:40;96723.19;;;8.56;100.00
13434;BME280;6789;47.678;9.158;2023-04-25T21:46:48;96724.56;;;8.34;100.00
13434;BME280;6789;47.678;9.158;2023-04-25T21:51:40;96722.19;;;8.26;100.00
13434;BME280;6789;47.678;9.158;2023-04-25T21:56:32;96732.28;;;8.16;100.00
13434;BME280;6789;47.678;9.158;2023-04-25T22:01:49;96733.09;;;8.10;100.00
13434;BME280;6789;47.678;9.158;2023-04-25T22:06:44;96736.09;;;8.14;100.00
13434;BME280;6789;47.678;9.158;2023-04-25T22:11:53;96724.25;;;8.11;100.00
13434;BME280;6789;47.678;9.158;2023-04-25T22:17:21;96724.44;;;8.10;100.00
13434;BME280;6789;47.678;9.158;2023-04-25T22:23:03;96735.53;;;8.05;100.00
13434;BME280;6789;47.678;9.158;2023-04-25T22:28:40;96738.59;;;7.96;100.00
13434;BME280;6789;47.678;9.158;2023-04-25T22:34:11;96731.16;;;7.93;100.00
13434;BME280;6789;47.678;9.158;2023-04-25T22:40:10;96732.59;;;7.89;100.00
13434;BME280;6789;47.678;9.158;2023-04-25T22:45:26;96733.53;;;8.01;100.00
13434;BME280;6789;47.678;9.158;2023-04-25T22:50:37;96744.38;;;7.98;100.00
13434;BME280;6789;47.678;9.158;2023-04-25T22:55:40;96744.59;;;7.96;100.00
13434;BME280;6789;47.678;9.158;2023-04-25T23:00:56;96737.56;;;7.97;100.00
13434;BME280;6789;47.678;9.158;2023-04-25T23:05:49;96750.16;;;8.06;100.00
13434;BME280;6789;47.678;9.158;2023-04-25T23:10:44;96751.66;;;7.96;100.00
13434;BME280;6789;47.678;9.158;2023-04-25T23:15:36;96738.47;;;7.78;100.00
13434;BME280;6789;47.678;9.158;2023-04-25T23:20:28;96740.47;;;7.70;100.00
13434;BME280;6789;47.678;9.158;2023-04-25T23:25:20;96737.47;;;7.66;100.00
13434;BME280;6789;47.678;9.158;2023-04-25T23:30:12;96748.72;;;7.60;100.00
13434;BME280;6789;47.678;9.158;2023-04-25T23:35:05;96742.75;;;7.47;100.00
13434;BME280;6789;47.678;9.158;2023-04-25T23:39:57;96739.53;;;7.45;100.00
13434;BME280;6789;47.678;9.158;2023-04-25T23:44:49;96739.56;;;7.38;100.00
13434;BME280;6789;47.678;9.158;2023-04-25T23:49:41;96739.38;;;7.33;100.00
13434;BME280;6789;47.678;9.158;2023-04-25T23:54:32;96741.59;;;7.30;100.00
13434;BME280;6789;47.678;9.158;2023-04-25T23:59:24;96747.78;;;7.35;100.00
